createdAt,value
2019-03-18T00:01:34.581Z,5.53
2019-03-18T00:04:04.852Z,7.43
2019-03-18T00:06:35.071Z,6.03
2019-03-18T00:09:07.037Z,7.80
2019-03-18T00:11:37.263Z,7.43
2019-03-18T00:14:07.460Z,7.57
2019-03-18T00:16:37.724Z,7.17
2019-03-18T00:19:07.878Z,5.43
2019-03-18T00:21:38.493Z,6.87
2019-03-18T00:24:09.463Z,6.60
2019-03-18T00:26:39.758Z,5.17
2019-03-18T00:29:10.012Z,7.27
2019-03-18T00:31:40.179Z,6.87
2019-03-18T00:34:10.800Z,5.07
2019-03-18T00:36:41.005Z,4.20
2019-03-18T00:39:11.177Z,5.43
2019-03-18T00:41:41.683Z,7.37
2019-03-18T00:44:12.323Z,6.83
2019-03-18T00:46:42.451Z,7.20
2019-03-18T00:49:12.730Z,5.90
2019-03-18T00:51:43.008Z,5.80
2019-03-18T00:54:13.273Z,6.87
2019-03-18T00:56:43.555Z,5.57
2019-03-18T00:59:13.823Z,6.60
2019-03-18T01:01:44.055Z,6.30
2019-03-18T01:04:14.258Z,6.47
2019-03-18T01:06:44.493Z,6.60
2019-03-18T01:09:14.744Z,8.10
2019-03-18T01:11:44.981Z,5.97
2019-03-18T01:14:15.205Z,8.27
2019-03-18T01:16:45.512Z,4.87
2019-03-18T01:19:15.799Z,6.57
2019-03-18T01:21:46.054Z,4.53
2019-03-18T01:24:16.303Z,4.80
2019-03-18T01:26:47.535Z,4.40
2019-03-18T01:29:18.216Z,7.33
2019-03-18T01:31:48.408Z,7.20
2019-03-18T01:34:18.646Z,6.90
2019-03-18T01:36:48.818Z,7.00
2019-03-18T01:39:19.304Z,6.43
2019-03-18T01:41:49.548Z,4.43
2019-03-18T01:44:19.862Z,5.33
2019-03-18T01:46:50.141Z,3.87
2019-03-18T01:49:20.705Z,4.97
2019-03-18T01:51:51.120Z,4.20
2019-03-18T01:54:21.352Z,5.47
2019-03-18T01:56:51.649Z,6.07
2019-03-18T01:59:22.635Z,4.03
2019-03-18T02:01:52.974Z,7.67
2019-03-18T02:04:23.200Z,4.70
2019-03-18T02:06:55.788Z,5.83
2019-03-18T02:09:26.068Z,5.00
2019-03-18T02:11:56.265Z,5.47
2019-03-18T02:14:26.471Z,5.30
2019-03-18T02:16:56.679Z,4.30
2019-03-18T02:19:26.872Z,5.43
2019-03-18T02:21:57.035Z,6.37
2019-03-18T02:24:27.611Z,5.80
2019-03-18T02:26:58.404Z,5.97
2019-03-18T02:29:28.934Z,6.40
2019-03-18T02:32:00.164Z,3.97
2019-03-18T02:34:30.748Z,7.80
2019-03-18T02:37:01.079Z,5.93
2019-03-18T02:39:41.042Z,6.13
2019-03-18T02:42:11.296Z,8.27
2019-03-18T02:44:41.654Z,3.50
2019-03-18T02:47:11.972Z,5.87
2019-03-18T02:49:42.588Z,5.03
2019-03-18T02:52:12.887Z,6.57
2019-03-18T02:54:43.086Z,6.20
2019-03-18T02:57:13.693Z,5.70
2019-03-18T02:59:44.213Z,7.20
2019-03-18T03:02:14.782Z,4.03
2019-03-18T03:04:44.949Z,5.63
2019-03-18T03:07:15.139Z,7.70
2019-03-18T03:09:45.971Z,5.97
2019-03-18T03:12:16.164Z,5.13
2019-03-18T03:14:46.280Z,5.70
2019-03-18T03:17:16.701Z,5.40
2019-03-18T03:19:46.850Z,4.20
2019-03-18T03:22:17.388Z,6.10
2019-03-18T03:24:47.588Z,5.10
2019-03-18T03:27:17.732Z,5.30
2019-03-18T03:29:47.931Z,6.63
2019-03-18T03:32:18.746Z,5.50
2019-03-18T03:34:49.265Z,4.60
2019-03-18T03:37:19.419Z,7.20
2019-03-18T03:39:49.884Z,7.30
2019-03-18T03:42:20.435Z,5.07
2019-03-18T03:44:50.615Z,5.13
2019-03-18T03:47:21.131Z,7.23
2019-03-18T03:49:51.363Z,6.03
2019-03-18T03:52:21.541Z,4.33
2019-03-18T03:54:52.045Z,8.43
2019-03-18T03:57:22.360Z,6.07
2019-03-18T03:59:52.559Z,5.23
2019-03-18T04:02:22.771Z,5.23
2019-03-18T04:04:53.053Z,5.83
2019-03-18T04:07:23.143Z,6.43
2019-03-18T04:09:53.705Z,6.20
2019-03-18T04:12:23.925Z,9.00
2019-03-18T04:14:54.490Z,3.80
2019-03-18T04:17:24.663Z,4.93
2019-03-18T04:19:54.828Z,5.60
2019-03-18T04:22:25.033Z,6.10
2019-03-18T04:24:55.229Z,6.87
2019-03-18T04:27:25.439Z,7.90
2019-03-18T04:29:55.926Z,6.47
2019-03-18T04:32:26.148Z,5.20
2019-03-18T04:34:56.292Z,7.40
2019-03-18T04:37:26.464Z,10.63
2019-03-18T04:39:57.445Z,6.23
2019-03-18T04:42:27.675Z,4.53
2019-03-18T04:44:57.909Z,7.57
2019-03-18T04:47:28.081Z,4.43
2019-03-18T04:49:58.197Z,4.33
2019-03-18T04:52:28.770Z,5.53
2019-03-18T04:54:59.396Z,5.43
2019-03-18T04:57:29.579Z,5.20
2019-03-18T04:59:59.759Z,6.17
2019-03-18T05:02:29.959Z,4.50
2019-03-18T05:05:00.813Z,5.23
2019-03-18T05:07:31.020Z,5.27
2019-03-18T05:10:01.227Z,3.63
2019-03-18T05:12:31.440Z,5.43
2019-03-18T05:15:01.635Z,5.03
2019-03-18T05:17:31.839Z,6.07
2019-03-18T05:20:02.028Z,4.97
2019-03-18T05:22:32.190Z,4.93
2019-03-18T05:25:03.452Z,5.87
2019-03-18T05:27:33.618Z,4.87
2019-03-18T05:30:04.067Z,3.60
2019-03-18T05:32:34.169Z,6.07
2019-03-18T05:35:04.289Z,8.63
2019-03-18T05:37:34.416Z,7.60
2019-03-18T05:40:04.721Z,3.73
2019-03-18T05:42:34.932Z,6.90
2019-03-18T05:45:05.247Z,5.43
2019-03-18T05:47:39.551Z,7.47
2019-03-18T05:50:07.977Z,6.87
2019-03-18T05:52:38.132Z,6.03
2019-03-18T05:55:08.654Z,5.53
2019-03-18T05:57:39.457Z,5.50
2019-03-18T06:00:09.721Z,6.77
2019-03-18T06:02:39.974Z,5.77
2019-03-18T06:05:13.308Z,7.03
2019-03-18T06:07:43.472Z,4.73
2019-03-18T06:10:13.723Z,4.87
2019-03-18T06:12:43.972Z,7.23
2019-03-18T06:15:14.151Z,6.20
2019-03-18T06:17:52.478Z,6.33
2019-03-18T06:20:16.208Z,6.03
2019-03-18T06:22:46.468Z,10.17
2019-03-18T06:25:16.686Z,9.10
2019-03-18T06:27:47.007Z,8.37
2019-03-18T06:30:17.246Z,6.47
2019-03-18T06:32:47.440Z,5.97
2019-03-18T06:35:20.325Z,6.53
2019-03-18T06:37:49.766Z,5.20
2019-03-18T06:40:20.434Z,7.70
2019-03-18T06:42:50.973Z,7.73
2019-03-18T06:45:21.109Z,5.87
2019-03-18T06:48:03.790Z,6.23
2019-03-18T06:50:23.249Z,5.97
2019-03-18T06:52:53.502Z,5.63
2019-03-18T06:55:23.668Z,6.60
2019-03-18T06:57:53.917Z,6.57
2019-03-18T07:00:24.159Z,8.43
2019-03-18T07:02:54.373Z,5.50
2019-03-18T07:05:24.583Z,6.83
2019-03-18T07:07:55.001Z,5.97
2019-03-18T07:10:25.496Z,9.10
2019-03-18T07:12:56.052Z,8.43
2019-03-18T07:15:26.273Z,6.90
2019-03-18T07:17:56.797Z,8.40
2019-03-18T07:20:27.027Z,7.77
2019-03-18T07:22:57.283Z,5.77
2019-03-18T07:25:27.495Z,4.70
2019-03-18T07:27:57.701Z,6.07
2019-03-18T07:30:27.855Z,6.17
2019-03-18T07:32:59.283Z,6.00
2019-03-18T07:35:29.545Z,8.43
2019-03-18T07:37:59.766Z,7.60
2019-03-18T07:40:30.328Z,9.07
2019-03-18T07:43:00.817Z,9.50
2019-03-18T07:45:31.034Z,6.43
2019-03-18T07:48:01.239Z,8.53
2019-03-18T07:50:31.447Z,8.13
2019-03-18T07:53:01.591Z,8.83
2019-03-18T07:55:31.831Z,11.13
2019-03-18T07:58:02.063Z,5.37
2019-03-18T08:00:32.253Z,6.83
2019-03-18T08:03:03.550Z,8.97
2019-03-18T08:05:34.173Z,6.40
2019-03-18T08:08:04.348Z,5.83
2019-03-18T08:10:34.607Z,9.90
2019-03-18T08:13:05.661Z,6.80
2019-03-18T08:15:36.294Z,5.73
2019-03-18T08:18:06.492Z,7.53
2019-03-18T08:20:36.714Z,10.40
2019-03-18T08:23:06.986Z,6.63
2019-03-18T08:25:37.220Z,6.77
2019-03-18T08:28:07.398Z,9.30
2019-03-18T08:30:37.700Z,9.07
2019-03-18T08:33:07.844Z,9.17
2019-03-18T08:35:37.994Z,11.80
2019-03-18T08:38:08.221Z,12.73
2019-03-18T08:40:38.436Z,9.53
2019-03-18T08:43:08.640Z,12.13
2019-03-18T08:45:38.884Z,7.10
2019-03-18T08:48:09.151Z,10.97
2019-03-18T08:50:39.322Z,6.67
2019-03-18T08:53:09.748Z,9.07
2019-03-18T08:55:39.892Z,10.27
2019-03-18T08:58:10.089Z,7.00
2019-03-18T09:00:40.306Z,5.80
2019-03-18T09:03:10.547Z,6.20
2019-03-18T09:05:41.067Z,10.93
2019-03-18T09:08:11.729Z,4.20
2019-03-18T09:10:42.682Z,5.17
2019-03-18T09:13:13.223Z,8.70
2019-03-18T09:15:43.376Z,8.53
2019-03-18T09:18:13.883Z,9.10
2019-03-18T09:20:44.064Z,9.90
2019-03-18T09:23:14.286Z,6.60
2019-03-18T09:25:44.593Z,4.87
2019-03-18T09:28:15.120Z,6.93
2019-03-18T09:30:45.369Z,7.80
2019-03-18T09:33:15.933Z,5.87
2019-03-18T09:35:46.161Z,6.77
2019-03-18T09:38:16.281Z,5.87
2019-03-18T09:40:46.550Z,6.60
2019-03-18T09:43:17.157Z,5.83
2019-03-18T09:45:47.390Z,5.90
2019-03-18T09:48:17.641Z,6.10
2019-03-18T09:50:47.877Z,6.03
2019-03-18T09:53:18.093Z,5.83
2019-03-18T09:55:48.614Z,7.00
2019-03-18T09:58:18.791Z,8.30
2019-03-18T10:00:49.266Z,5.67
2019-03-18T10:03:19.728Z,5.67
2019-03-18T10:05:50.195Z,7.67
2019-03-18T10:08:20.451Z,7.03
2019-03-18T10:10:50.663Z,8.07
2019-03-18T10:13:20.889Z,7.20
2019-03-18T10:15:51.038Z,7.83
2019-03-18T10:18:21.586Z,6.77
2019-03-18T10:20:51.771Z,6.60
2019-03-18T10:23:21.952Z,6.00
2019-03-18T10:25:52.655Z,7.90
2019-03-18T10:28:23.170Z,7.17
2019-03-18T10:30:53.802Z,6.27
2019-03-18T10:33:24.025Z,7.23
2019-03-18T10:35:54.389Z,5.87
2019-03-18T10:38:25.405Z,7.57
2019-03-18T10:40:55.938Z,6.67
2019-03-18T10:43:26.188Z,6.07
2019-03-18T10:45:56.455Z,6.10
2019-03-18T10:48:26.656Z,5.57
2019-03-18T10:50:56.909Z,5.70
2019-03-18T10:53:27.121Z,4.93
2019-03-18T10:56:07.320Z,8.20
2019-03-18T10:58:29.464Z,4.17
2019-03-18T11:00:59.694Z,8.50
2019-03-18T11:03:29.883Z,6.27
2019-03-18T11:06:00.502Z,5.67
2019-03-18T11:08:30.714Z,6.77
2019-03-18T11:11:00.938Z,8.07
2019-03-18T11:13:31.165Z,8.83
2019-03-18T11:16:01.396Z,7.10
2019-03-18T11:18:32.102Z,9.80
2019-03-18T11:21:02.742Z,7.90
2019-03-18T11:23:33.264Z,6.07
2019-03-18T11:26:04.197Z,5.20
2019-03-18T11:28:34.423Z,8.83
2019-03-18T11:31:04.626Z,6.27
2019-03-18T11:33:35.199Z,7.50
2019-03-18T11:36:05.498Z,6.77
2019-03-18T11:38:35.811Z,6.97
2019-03-18T11:41:06.335Z,10.30
2019-03-18T11:43:36.932Z,6.17
2019-03-18T11:46:07.173Z,7.90
2019-03-18T11:48:37.377Z,6.90
2019-03-18T11:51:07.593Z,7.07
2019-03-18T11:53:37.875Z,7.13
2019-03-18T11:56:08.112Z,8.53
2019-03-18T11:58:38.384Z,7.87
2019-03-18T12:01:08.850Z,7.40
2019-03-18T12:03:39.473Z,7.17
2019-03-18T12:06:10.240Z,6.83
2019-03-18T12:08:40.453Z,5.93
2019-03-18T12:11:11.014Z,8.60
2019-03-18T12:13:41.550Z,5.67
2019-03-18T12:16:12.113Z,6.97
2019-03-18T12:18:42.582Z,5.63
2019-03-18T12:21:12.795Z,8.77
2019-03-18T12:23:43.041Z,7.03
2019-03-18T12:26:14.071Z,5.03
2019-03-18T12:28:44.284Z,7.37
2019-03-18T12:31:14.512Z,7.97
2019-03-18T12:33:44.787Z,6.87
2019-03-18T12:36:15.351Z,6.20
2019-03-18T12:38:45.937Z,8.17
2019-03-18T12:41:16.146Z,6.80
2019-03-18T12:43:46.711Z,5.90
2019-03-18T12:46:16.937Z,9.80
2019-03-18T12:48:47.170Z,7.47
2019-03-18T12:51:18.108Z,8.87
2019-03-18T12:53:48.363Z,7.03
2019-03-18T12:56:18.597Z,6.43
2019-03-18T12:58:49.178Z,6.73
2019-03-18T13:01:19.357Z,5.80
2019-03-18T13:03:49.564Z,7.03
2019-03-18T13:06:19.796Z,6.87
2019-03-18T13:08:49.990Z,5.10
2019-03-18T13:11:20.160Z,7.30
2019-03-18T13:13:50.361Z,7.13
2019-03-18T13:16:20.808Z,5.50
2019-03-18T13:18:50.999Z,8.37
2019-03-18T13:21:21.191Z,8.03
2019-03-18T13:23:51.414Z,5.60
2019-03-18T13:26:21.651Z,7.63
2019-03-18T13:28:51.830Z,8.13
2019-03-18T13:31:22.073Z,7.73
2019-03-18T13:33:52.628Z,6.87
2019-03-18T13:36:25.294Z,8.47
2019-03-18T13:38:54.743Z,8.23
2019-03-18T13:41:24.922Z,7.63
2019-03-18T13:43:55.149Z,7.83
2019-03-18T13:46:25.737Z,11.30
2019-03-18T13:48:55.998Z,8.80
2019-03-18T13:51:26.490Z,7.70
2019-03-18T13:53:56.703Z,9.93
2019-03-18T13:56:27.357Z,12.43
2019-03-18T13:58:57.562Z,6.43
2019-03-18T14:01:27.697Z,6.77
2019-03-18T14:03:57.938Z,8.03
2019-03-18T14:06:28.194Z,8.60
2019-03-18T14:08:59.013Z,12.03
2019-03-18T14:11:29.531Z,11.33
2019-03-18T14:13:59.762Z,8.03
2019-03-18T14:16:30.801Z,7.40
2019-03-18T14:19:01.635Z,7.23
2019-03-18T14:21:33.592Z,8.27
2019-03-18T14:24:03.714Z,7.43
2019-03-18T14:26:34.261Z,7.77
2019-03-18T14:29:05.221Z,6.00
2019-03-18T14:31:35.729Z,9.97
2019-03-18T14:34:05.953Z,6.40
2019-03-18T14:36:36.166Z,11.40
2019-03-18T14:39:08.046Z,10.27
2019-03-18T14:41:38.524Z,8.63
2019-03-18T14:44:08.991Z,10.90
2019-03-18T14:46:39.198Z,8.67
2019-03-18T14:49:09.859Z,7.93
2019-03-18T14:51:45.638Z,11.53
2019-03-18T14:54:12.261Z,7.23
2019-03-18T14:56:42.405Z,12.53
2019-03-18T14:59:12.589Z,7.90
2019-03-18T15:01:42.829Z,7.73
2019-03-18T15:04:13.016Z,6.57
2019-03-18T15:06:43.261Z,7.93
2019-03-18T15:09:13.714Z,8.03
2019-03-18T15:11:43.935Z,10.70
2019-03-18T15:14:14.133Z,9.27
2019-03-18T15:16:44.383Z,7.40
2019-03-18T15:19:14.584Z,6.90
2019-03-18T15:21:57.314Z,8.50
2019-03-18T15:24:17.516Z,8.83
2019-03-18T15:26:47.770Z,8.77
2019-03-18T15:29:18.019Z,8.53
2019-03-18T15:31:48.239Z,10.63
2019-03-18T15:34:18.441Z,6.43
2019-03-18T15:36:49.019Z,8.00
2019-03-18T15:39:19.278Z,9.63
2019-03-18T15:41:49.446Z,6.23
2019-03-18T15:44:19.679Z,12.20
2019-03-18T15:46:50.098Z,8.43
2019-03-18T15:49:20.619Z,10.93
2019-03-18T15:51:50.770Z,7.67
2019-03-18T15:54:21.316Z,10.30
2019-03-18T15:56:51.948Z,12.33
2019-03-18T15:59:22.510Z,8.43
2019-03-18T16:01:52.727Z,13.57
2019-03-18T16:04:22.896Z,9.53
2019-03-18T16:06:53.120Z,7.00
2019-03-18T16:09:23.464Z,5.93
2019-03-18T16:11:54.376Z,6.40
2019-03-18T16:14:24.612Z,8.80
2019-03-18T16:17:01.916Z,8.77
2019-03-18T16:19:26.883Z,10.23
2019-03-18T16:21:57.138Z,11.53
2019-03-18T16:24:27.348Z,7.97
2019-03-18T16:26:57.900Z,8.07
2019-03-18T16:29:29.370Z,10.40
2019-03-18T16:32:10.807Z,10.40
2019-03-18T16:34:32.193Z,8.97
2019-03-18T16:37:02.433Z,7.90
2019-03-18T16:39:32.641Z,8.70
2019-03-18T16:42:03.204Z,8.30
2019-03-18T16:44:33.813Z,8.23
2019-03-18T16:47:04.057Z,7.57
2019-03-18T16:49:34.246Z,7.03
2019-03-18T16:52:04.477Z,5.97
2019-03-18T16:54:35.129Z,11.00
2019-03-18T16:57:05.325Z,9.03
2019-03-18T16:59:35.469Z,8.60
2019-03-18T17:02:06.062Z,6.40
2019-03-18T17:04:36.271Z,8.67
2019-03-18T17:07:06.517Z,8.23
2019-03-18T17:09:36.709Z,6.53
2019-03-18T17:12:07.010Z,9.00
2019-03-18T17:14:37.245Z,11.33
2019-03-18T17:17:07.445Z,10.23
2019-03-18T17:19:38.062Z,11.00
2019-03-18T17:22:08.610Z,10.00
2019-03-18T17:24:39.136Z,8.33
2019-03-18T17:27:09.346Z,13.83
2019-03-18T17:29:39.585Z,8.13
2019-03-18T17:32:09.818Z,8.13
2019-03-18T17:34:40.056Z,10.53
2019-03-18T17:37:10.254Z,11.07
2019-03-18T17:39:40.501Z,9.80
2019-03-18T17:42:10.796Z,9.53
2019-03-18T17:44:40.976Z,7.40
2019-03-18T17:47:11.197Z,7.77
2019-03-18T17:49:41.420Z,10.43
2019-03-18T17:52:11.580Z,9.43
2019-03-18T17:54:44.506Z,6.33
2019-03-18T17:57:13.602Z,10.43
2019-03-18T17:59:44.039Z,4.03
2019-03-18T18:02:14.652Z,8.67
2019-03-18T18:04:44.947Z,9.03
2019-03-18T18:07:15.193Z,10.83
2019-03-18T18:09:46.071Z,6.80
2019-03-18T18:12:16.344Z,11.83
2019-03-18T18:14:47.223Z,5.93
2019-03-18T18:17:17.384Z,14.10
2019-03-18T18:19:47.586Z,11.17
2019-03-18T18:22:18.163Z,8.70
2019-03-18T18:24:48.709Z,11.67
2019-03-18T18:27:22.079Z,8.70
2019-03-18T18:29:52.309Z,10.77
2019-03-18T18:32:22.523Z,7.93
2019-03-18T18:34:52.759Z,9.67
2019-03-18T18:37:23.003Z,12.87
2019-03-18T18:39:53.204Z,10.33
2019-03-18T18:42:23.421Z,9.83
2019-03-18T18:44:53.611Z,10.47
2019-03-18T18:47:24.103Z,10.10
2019-03-18T18:49:54.336Z,12.83
2019-03-18T18:52:27.546Z,10.57
2019-03-18T18:55:00.950Z,10.17
2019-03-18T18:57:31.111Z,9.47
2019-03-18T19:00:01.326Z,10.47
2019-03-18T19:02:31.611Z,16.97
2019-03-18T19:05:01.801Z,11.47
2019-03-18T19:07:32.404Z,11.83
2019-03-18T19:10:02.918Z,9.03
2019-03-18T19:12:33.527Z,8.73
2019-03-18T19:15:04.182Z,10.73
2019-03-18T19:17:34.687Z,13.90
2019-03-18T19:20:05.683Z,11.47
2019-03-18T19:22:35.869Z,12.97
2019-03-18T19:25:07.573Z,10.00
2019-03-18T19:27:37.763Z,11.67
2019-03-18T19:30:10.868Z,14.93
2019-03-18T19:32:41.610Z,12.30
2019-03-18T19:35:12.134Z,14.17
2019-03-18T19:37:42.887Z,12.50
2019-03-18T19:40:13.772Z,11.97
2019-03-18T19:42:44.060Z,14.87
2019-03-18T19:45:14.378Z,10.73
2019-03-18T19:47:44.584Z,9.07
2019-03-18T19:50:16.338Z,7.97
2019-03-18T19:52:46.575Z,9.73
2019-03-18T19:55:16.779Z,9.67
2019-03-18T19:57:47.003Z,11.77
2019-03-18T20:00:18.886Z,13.27
2019-03-18T20:02:49.084Z,14.17
2019-03-18T20:05:19.350Z,8.07
2019-03-18T20:07:49.566Z,8.73
2019-03-18T20:10:19.774Z,8.10
2019-03-18T20:12:49.970Z,14.60
2019-03-18T20:15:20.252Z,7.90
2019-03-18T20:17:50.740Z,10.17
2019-03-18T20:20:21.065Z,7.93
2019-03-18T20:22:51.260Z,9.43
2019-03-18T20:25:21.471Z,8.30
2019-03-18T20:27:51.627Z,8.97
2019-03-18T20:30:22.167Z,9.60
2019-03-18T20:32:52.371Z,11.20
2019-03-18T20:35:23.006Z,12.00
2019-03-18T20:37:53.230Z,8.83
2019-03-18T20:40:23.417Z,9.50
2019-03-18T20:42:53.616Z,11.10
2019-03-18T20:45:24.112Z,13.20
2019-03-18T20:51:23.583Z,9.23
2019-03-18T20:53:54.139Z,9.87
2019-03-18T20:56:24.617Z,12.97
2019-03-18T20:58:54.765Z,11.03
2019-03-18T21:01:24.927Z,12.63
2019-03-18T21:03:55.479Z,9.60
2019-03-18T21:06:25.654Z,11.30
2019-03-18T21:08:55.875Z,8.50
2019-03-18T21:11:26.285Z,10.67
2019-03-18T21:13:57.513Z,12.33
2019-03-18T21:16:27.758Z,9.47
2019-03-18T21:18:57.973Z,8.10
2019-03-18T21:21:28.385Z,14.23
2019-03-18T21:23:58.874Z,10.03
2019-03-18T21:26:29.374Z,8.57
2019-03-18T21:28:59.566Z,17.90
2019-03-18T21:31:30.067Z,18.90
2019-03-18T21:34:00.237Z,15.03
2019-03-18T21:36:37.938Z,15.60
2019-03-18T21:39:02.590Z,13.63
2019-03-18T21:41:33.102Z,12.73
2019-03-18T21:44:03.322Z,12.20
2019-03-18T21:46:33.519Z,16.97
2019-03-18T21:49:04.356Z,15.13
2019-03-18T21:51:34.912Z,12.77
2019-03-18T21:54:05.214Z,19.23
2019-03-18T21:56:35.377Z,19.13
2019-03-18T21:59:05.628Z,20.43
2019-03-18T22:01:35.858Z,15.67
2019-03-18T22:04:06.076Z,17.57
2019-03-18T22:06:36.310Z,16.83
2019-03-18T22:09:07.954Z,16.80
2019-03-18T22:11:38.095Z,15.17
2019-03-18T22:14:08.287Z,18.97
2019-03-18T22:16:38.424Z,17.97
2019-03-18T22:19:08.945Z,17.23
2019-03-18T22:21:39.147Z,17.43
2019-03-18T22:24:09.356Z,18.47
2019-03-18T22:26:39.522Z,18.90
2019-03-18T22:29:10.155Z,16.70
2019-03-18T22:31:40.341Z,19.73
2019-03-18T22:34:10.542Z,22.90
2019-03-18T22:36:41.061Z,20.73
2019-03-18T22:39:11.258Z,16.67
2019-03-18T22:41:41.488Z,16.73
2019-03-18T22:44:11.697Z,16.13
2019-03-18T22:46:42.139Z,17.87
2019-03-18T22:49:12.357Z,17.73
2019-03-18T22:51:42.553Z,18.77
2019-03-18T22:54:13.491Z,19.37
2019-03-18T22:56:44.006Z,17.77
2019-03-18T22:59:14.217Z,18.27
2019-03-18T23:01:44.440Z,15.37
2019-03-18T23:04:14.549Z,19.13
2019-03-18T23:06:44.694Z,17.83
2019-03-18T23:09:14.825Z,21.37
2019-03-18T23:11:44.953Z,20.33
2019-03-18T23:14:15.149Z,20.50
2019-03-18T23:16:45.340Z,17.70
2019-03-18T23:19:15.508Z,18.10
2019-03-18T23:21:45.722Z,23.50
2019-03-18T23:24:16.202Z,21.53
2019-03-18T23:26:46.377Z,20.93
2019-03-18T23:29:16.573Z,22.13
2019-03-18T23:31:46.811Z,17.07
2019-03-18T23:34:19.282Z,18.33
2019-03-18T23:36:48.814Z,20.23
2019-03-18T23:39:18.881Z,20.60
2019-03-18T23:41:49.415Z,17.63
2019-03-18T23:44:19.657Z,13.97
2019-03-18T23:46:49.849Z,15.70
2019-03-18T23:49:20.533Z,13.27
2019-03-18T23:51:50.762Z,15.10
2019-03-18T23:54:20.936Z,17.40
2019-03-18T23:56:51.432Z,16.60
2019-03-18T23:59:21.627Z,17.77
